Time;durP1;ratioP1;P1;durP2;ratioP2;P2;SDS_P1;SDS_P2;PMS_P1;PMS_P2;Temp;Humidity;BMP_temperature;BMP_pressure;BME280_temperature;BME280_humidity;BME280_pressure;Samples;Min_cycle;Max_cycle;Signal;HPM_P1;HPM_P2
2021/06/16 00:00:24;;;;;;;15.10;10.95;;;18.30;99.90;;;;;;5073112;28;20060;-90
2021/06/16 00:02:50;;;;;;;13.15;10.80;;;18.30;99.90;;;;;;5073108;28;20032;-89
2021/06/16 00:05:28;;;;;;;10.95;9.20;;;18.40;99.90;;;;;;5072861;28;20024;-91
2021/06/16 00:07:55;;;;;;;12.43;9.70;;;18.40;99.90;;;;;;5072905;28;20028;-90
2021/06/16 00:10:31;;;;;;;11.82;10.38;;;18.40;99.90;;;;;;5072842;28;20179;-88
2021/06/16 00:13:09;;;;;;;9.00;8.10;;;18.40;99.90;;;;;;5055739;28;20031;-90
2021/06/16 00:15:40;;;;;;;8.90;7.57;;;18.40;99.90;;;;;;5055641;28;20386;-87
2021/06/16 00:18:14;;;;;;;8.52;6.80;;;18.30;99.90;;;;;;5056511;28;20025;-88
2021/06/16 00:20:47;;;;;;;11.90;7.05;;;18.20;99.90;;;;;;5056543;28;20033;-88
2021/06/16 00:23:25;;;;;;;9.05;6.57;;;18.20;99.90;;;;;;5040358;28;20039;-86
2021/06/16 00:25:57;;;;;;;6.90;6.20;;;18.10;99.90;;;;;;5039565;28;20021;-87
2021/06/16 00:28:31;;;;;;;7.82;6.03;;;18.10;99.90;;;;;;5055830;28;20378;-86
2021/06/16 00:30:58;;;;;;;8.23;6.63;;;18.10;99.90;;;;;;5055799;28;20033;-86
2021/06/16 00:33:27;;;;;;;14.48;7.05;;;18.10;99.90;;;;;;5068826;28;20132;-86
2021/06/16 00:36:00;;;;;;;13.75;7.80;;;18.10;99.90;;;;;;5058972;28;20021;-85
2021/06/16 00:38:29;;;;;;;11.07;8.07;;;18.10;99.90;;;;;;5059932;28;20059;-86
2021/06/16 00:41:03;;;;;;;9.68;7.72;;;18.00;99.90;;;;;;5042249;28;20052;-85
2021/06/16 00:43:32;;;;;;;9.10;7.03;;;18.00;99.90;;;;;;5058746;28;20027;-86
2021/06/16 00:46:01;;;;;;;9.63;8.63;;;18.00;99.90;;;;;;5058918;28;20474;-86
2021/06/16 00:48:32;;;;;;;10.57;8.40;;;18.00;99.90;;;;;;5059637;28;20032;-86
2021/06/16 00:51:20;;;;;;;11.30;9.88;;;18.00;99.90;;;;;;5076579;28;20462;-86
2021/06/16 00:54:16;;;;;;;12.30;9.98;;;18.00;99.90;;;;;;5042358;28;20033;-86
2021/06/16 00:57:00;;;;;;;16.60;11.20;;;17.90;99.90;;;;;;5075127;28;20094;-88
2021/06/16 00:59:34;;;;;;;20.00;12.52;;;17.70;99.90;;;;;;5058607;28;20047;-86
2021/06/16 01:02:00;;;;;;;30.80;14.90;;;17.50;99.90;;;;;;5076359;28;20020;-85
2021/06/16 01:04:35;;;;;;;21.73;14.98;;;17.50;99.90;;;;;;5076285;28;20051;-88
2021/06/16 01:07:21;;;;;;;30.63;16.10;;;17.40;99.90;;;;;;5074819;28;20028;-86
2021/06/16 01:09:58;;;;;;;21.67;15.63;;;17.30;99.90;;;;;;5042398;28;20033;-87
2021/06/16 01:12:40;;;;;;;21.52;15.88;;;17.20;99.90;;;;;;5058914;28;20063;-89
2021/06/16 01:15:14;;;;;;;22.40;17.15;;;17.20;99.90;;;;;;5076237;28;20478;-88
2021/06/16 01:18:10;;;;;;;42.55;16.17;;;17.20;99.90;;;;;;5058739;28;20031;-90
2021/06/16 01:20:43;;;;;;;33.17;17.48;;;17.20;99.90;;;;;;5058160;28;20070;-84
2021/06/16 01:23:55;;;;;;;;;;;;;;;;;;;;;
2021/06/16 01:26:37;;;;;;;32.08;18.35;;;17.10;99.90;;;;;;5062120;28;20459;-80
2021/06/16 01:29:27;;;;;;;19.85;16.27;;;17.10;99.90;;;;;;5075620;28;20086;-80
2021/06/16 01:32:02;;;;;;;18.00;14.57;;;17.00;99.90;;;;;;5057644;28;20040;-79
2021/06/16 01:34:39;;;;;;;22.58;16.20;;;17.00;99.90;;;;;;5075813;28;20273;-81
2021/06/16 01:37:05;;;;;;;26.55;17.73;;;17.00;99.90;;;;;;5057530;28;20410;-78
2021/06/16 01:39:40;;;;;;;22.00;15.38;;;17.00;99.90;;;;;;5057526;28;20437;-79
2021/06/16 01:42:26;;;;;;;26.38;17.63;;;17.00;99.90;;;;;;5075472;28;20025;-79
2021/06/16 01:44:55;;;;;;;21.75;16.27;;;17.00;99.90;;;;;;5064735;28;20115;-79
2021/06/16 01:47:30;;;;;;;18.92;15.13;;;17.00;99.90;;;;;;5075451;28;20047;-79
2021/06/16 01:50:00;;;;;;;22.10;16.13;;;16.90;99.90;;;;;;5075300;28;20028;-78
2021/06/16 01:52:26;;;;;;;24.95;18.48;;;16.90;99.90;;;;;;5073789;28;20028;-78
2021/06/16 01:54:55;;;;;;;28.20;19.25;;;17.00;99.90;;;;;;5075057;28;20104;-79
2021/06/16 01:57:31;;;;;;;26.40;19.48;;;17.00;99.90;;;;;;5073894;28;20462;-78
2021/06/16 02:00:09;;;;;;;29.77;20.08;;;17.10;99.90;;;;;;5073789;28;20028;-82
2021/06/16 02:03:01;;;;;;;22.08;17.25;;;17.10;99.90;;;;;;5068846;28;20028;-80
2021/06/16 02:05:36;;;;;;;20.00;15.23;;;17.00;99.90;;;;;;5074176;28;20123;-82
2021/06/16 02:08:04;;;;;;;24.20;18.42;;;17.00;99.90;;;;;;5074074;28;20032;-82
2021/06/16 02:10:37;;;;;;;22.10;17.15;;;16.90;99.90;;;;;;5074500;28;20024;-85
2021/06/16 02:13:09;;;;;;;18.88;15.65;;;17.00;99.90;;;;;;5074695;28;20123;-88
2021/06/16 02:16:04;;;;;;;;;;;;;;;;;;;;;
2021/06/16 02:18:47;;;;;;;17.73;15.00;;;17.00;99.90;;;;;;5075188;28;20016;-85
2021/06/16 02:21:40;;;;;;;18.97;15.47;;;17.00;99.90;;;;;;5073301;28;20055;-86
2021/06/16 02:24:12;;;;;;;13.55;12.07;;;17.00;99.90;;;;;;5041487;28;20032;-83
2021/06/16 02:26:43;;;;;;;21.70;17.25;;;16.90;99.90;;;;;;5056594;28;20028;-84
2021/06/16 02:29:27;;;;;;;13.60;12.20;;;16.90;99.90;;;;;;5056531;28;20039;-82
2021/06/16 02:32:25;;;;;;;21.02;15.77;;;16.90;99.90;;;;;;5072889;28;20450;-83
2021/06/16 02:34:51;;;;;;;17.08;11.52;;;17.00;99.90;;;;;;5041086;28;20460;-83
2021/06/16 02:37:19;;;;;;;19.30;13.27;;;17.00;99.90;;;;;;5056264;28;20074;-86
2021/06/16 02:40:10;;;;;;;16.25;13.82;;;17.00;99.90;;;;;;5056758;28;20020;-85
2021/06/16 02:42:37;;;;;;;17.02;13.25;;;17.10;99.90;;;;;;5052861;28;20037;-86
2021/06/16 02:45:07;;;;;;;22.70;16.83;;;17.10;99.90;;;;;;5037029;28;20056;-86
2021/06/16 02:47:38;;;;;;;14.10;12.52;;;17.20;99.90;;;;;;5036746;28;20044;-84
2021/06/16 02:50:06;;;;;;;20.35;17.08;;;17.10;99.90;;;;;;5054541;28;20036;-87
2021/06/16 02:52:35;;;;;;;19.83;16.60;;;17.20;99.90;;;;;;5036670;28;20433;-85
2021/06/16 02:55:24;;;;;;;14.55;13.05;;;17.30;99.90;;;;;;5054427;28;20108;-87
2021/06/16 02:58:09;;;;;;;14.83;12.23;;;17.30;99.90;;;;;;5054532;28;20075;-86
2021/06/16 03:03:27;;;;;;;13.40;11.93;;;17.20;99.90;;;;;;5026406;28;20037;-87
2021/06/16 03:05:54;;;;;;;18.10;14.48;;;17.20;99.90;;;;;;5036592;28;20025;-88
2021/06/16 03:08:27;;;;;;;14.70;10.77;;;17.30;99.90;;;;;;5054378;28;20147;-90
2021/06/16 03:10:57;;;;;;;15.57;12.50;;;17.20;99.90;;;;;;5031191;28;20033;-87
2021/06/16 03:13:23;;;;;;;;;;;17.30;99.90;;;;;;5073095;28;20044;-87
2021/06/16 03:15:53;;;;;;;15.98;14.23;;;17.30;99.90;;;;;;5074163;28;19995;-87
2021/06/16 03:18:24;;;;;;;12.25;10.95;;;17.40;99.90;;;;;;5072974;28;20036;-87
2021/06/16 03:20:54;;;;;;;10.93;9.82;;;17.50;99.90;;;;;;5056707;28;20029;-87
2021/06/16 03:23:26;;;;;;;11.95;10.05;;;17.50;99.90;;;;;;5073057;28;20032;-87
2021/06/16 03:25:55;;;;;;;11.57;9.00;;;17.60;99.90;;;;;;5074273;28;20031;-87
2021/06/16 03:28:33;;;;;;;;;;;;;;;;;;;;;
2021/06/16 03:31:18;;;;;;;;;;;;;;;;;;;;;
2021/06/16 03:33:54;;;;;;;9.10;8.20;;;17.60;99.90;;;;;;5073598;28;20041;-87
2021/06/16 03:36:21;;;;;;;8.50;7.70;;;17.60;99.90;;;;;;5073366;28;20074;-88
2021/06/16 03:38:55;;;;;;;9.15;8.27;;;17.70;99.90;;;;;;5074108;28;20020;-89
2021/06/16 03:41:22;;;;;;;9.32;8.43;;;17.80;99.90;;;;;;5043682;28;20039;-88
2021/06/16 03:43:52;;;;;;;11.02;9.10;;;17.90;99.90;;;;;;5036631;28;20532;-88
2021/06/16 03:46:20;;;;;;;9.43;7.85;;;18.10;99.90;;;;;;5054069;28;20055;-88
2021/06/16 03:48:49;;;;;;;11.18;9.68;;;18.00;99.90;;;;;;5036116;28;20036;-86
2021/06/16 03:51:16;;;;;;;9.48;8.50;;;18.10;99.90;;;;;;5040258;28;20471;-87
2021/06/16 03:53:43;;;;;;;9.18;8.32;;;18.10;99.90;;;;;;5040367;28;20116;-87
2021/06/16 03:56:09;;;;;;;9.40;8.43;;;18.10;99.90;;;;;;5057981;28;20021;-87
2021/06/16 03:58:42;;;;;;;11.45;9.50;;;18.10;99.90;;;;;;5057693;28;20362;-87
2021/06/16 04:01:12;;;;;;;9.60;8.60;;;18.00;99.90;;;;;;5039913;28;20535;-87
2021/06/16 04:03:43;;;;;;;;;;;18.00;99.90;;;;;;5040402;28;20421;-87
2021/06/16 04:06:11;;;;;;;11.68;9.75;;;18.00;99.90;;;;;;5039800;28;20265;-87
2021/06/16 04:08:38;;;;;;;11.18;9.50;;;18.00;99.90;;;;;;5023687;28;20037;-87
2021/06/16 04:11:06;;;;;;;9.65;8.65;;;18.10;99.90;;;;;;5052268;28;20028;-87
2021/06/16 04:13:32;;;;;;;12.40;8.82;;;18.10;99.90;;;;;;5077526;28;20454;-87
2021/06/16 04:16:02;;;;;;;10.73;9.23;;;18.00;99.90;;;;;;5044559;28;20127;-87
2021/06/16 04:18:32;;;;;;;10.32;9.25;;;18.10;99.90;;;;;;5077425;28;20103;-86
2021/06/16 04:20:59;;;;;;;9.75;8.75;;;18.00;99.90;;;;;;5077292;28;20020;-87
2021/06/16 04:23:26;;;;;;;10.60;9.50;;;18.10;99.90;;;;;;5077310;28;20075;-86
2021/06/16 04:25:54;;;;;;;11.02;9.38;;;18.00;99.90;;;;;;5077518;28;20401;-87
2021/06/16 04:28:19;;;;;;;11.93;10.63;;;18.10;99.90;;;;;;5059296;28;20029;-87
2021/06/16 04:30:58;;;;;;;11.15;9.52;;;18.10;99.90;;;;;;5077615;28;20090;-87
2021/06/16 04:33:40;;;;;;;12.05;9.98;;;18.10;99.90;;;;;;5063003;28;20460;-96
2021/06/16 04:36:23;;;;;;;13.45;10.90;;;18.10;99.90;;;;;;5249210;22;20067;-95
2021/06/16 04:38:53;;;;;;;12.45;11.18;;;18.10;99.90;;;;;;5091928;28;20037;-96
2021/06/16 04:54:32;;;;;;;11.30;10.15;;;18.60;99.90;;;;;;5075528;28;20044;-91
2021/06/16 04:57:14;;;;;;;11.55;9.90;;;18.70;99.90;;;;;;5059498;28;20059;-93
2021/06/16 04:59:42;;;;;;;9.82;8.82;;;18.90;99.90;;;;;;5060882;28;20039;-90
2021/06/16 05:02:08;;;;;;;10.63;9.52;;;18.80;99.90;;;;;;5058945;28;20028;-91
2021/06/16 05:04:37;;;;;;;12.95;11.00;;;18.90;99.90;;;;;;5058734;28;20032;-89
2021/06/16 05:07:23;;;;;;;9.35;8.45;;;19.00;99.90;;;;;;5077146;28;20055;-91
2021/06/16 05:09:52;;;;;;;9.45;8.45;;;19.10;99.90;;;;;;5059333;28;20024;-90
2021/06/16 05:12:17;;;;;;;10.50;9.35;;;19.20;99.90;;;;;;5058575;28;20025;-90
2021/06/16 05:14:52;;;;;;;10.88;9.88;;;19.20;99.90;;;;;;5058597;28;20040;-91
2021/06/16 05:17:30;;;;;;;10.02;9.02;;;19.20;99.90;;;;;;5043510;28;20021;-91
2021/06/16 05:19:57;;;;;;;10.25;9.30;;;19.30;99.90;;;;;;5059694;28;20351;-88
2021/06/16 05:22:27;;;;;;;10.50;9.50;;;19.30;99.90;;;;;;5057812;28;20028;-86
2021/06/16 05:24:53;;;;;;;10.88;8.80;;;19.40;99.90;;;;;;5058205;28;20437;-89
2021/06/16 05:27:24;;;;;;;10.35;9.35;;;19.30;99.90;;;;;;5058063;28;20121;-89
2021/06/16 05:29:57;;;;;;;9.38;8.48;;;19.30;99.90;;;;;;5058096;28;20067;-87
2021/06/16 05:32:41;;;;;;;9.93;8.57;;;19.20;99.90;;;;;;5041064;28;20478;-90
2021/06/16 05:35:10;;;;;;;10.85;9.52;;;19.30;99.90;;;;;;5057844;28;20186;-88
2021/06/16 05:37:36;;;;;;;12.07;10.88;;;19.30;99.90;;;;;;5057724;28;20021;-85
2021/06/16 05:40:07;;;;;;;10.20;9.20;;;19.30;99.90;;;;;;5056753;28;20028;-84
2021/06/16 05:42:43;;;;;;;10.43;9.32;;;19.40;99.90;;;;;;5057250;28;20125;-84
2021/06/16 05:45:12;;;;;;;10.25;9.25;;;19.50;99.90;;;;;;5057833;28;20050;-82
2021/06/16 05:47:42;;;;;;;11.68;10.48;;;19.60;99.90;;;;;;5073333;28;20033;-83
2021/06/16 05:50:08;;;;;;;10.32;9.30;;;19.70;99.90;;;;;;5074857;28;20478;-83
2021/06/16 05:52:34;;;;;;;10.80;9.45;;;19.80;99.90;;;;;;5062616;28;20040;-83
2021/06/16 05:55:01;;;;;;;11.68;10.57;;;19.90;99.90;;;;;;5076868;28;20032;-84
2021/06/16 05:57:26;;;;;;;10.30;9.40;;;19.90;99.90;;;;;;5076924;28;20063;-84
2021/06/16 05:59:52;;;;;;;11.40;10.20;;;19.90;99.90;;;;;;5060172;28;20047;-84
2021/06/16 06:02:21;;;;;;;9.98;8.98;;;19.90;99.90;;;;;;5076725;28;20032;-85
2021/06/16 06:04:49;;;;;;;10.88;9.57;;;20.00;99.90;;;;;;5094870;28;20364;-84
2021/06/16 06:07:15;;;;;;;10.98;9.40;;;20.00;99.90;;;;;;5076961;28;20032;-85
2021/06/16 06:09:41;;;;;;;14.00;11.13;;;20.00;99.90;;;;;;5076727;28;20032;-84
2021/06/16 06:12:10;;;;;;;13.18;10.48;;;20.00;99.90;;;;;;5094137;28;20089;-88
2021/06/16 06:14:41;;;;;;;11.15;9.80;;;20.10;99.90;;;;;;5076595;28;20465;-85
2021/06/16 06:17:17;;;;;;;10.15;9.15;;;20.20;99.90;;;;;;5076928;28;20020;-88
2021/06/16 06:19:47;;;;;;;9.57;8.68;;;20.30;99.90;;;;;;5095179;28;20099;-87
2021/06/16 06:22:13;;;;;;;9.93;9.02;;;20.30;99.90;;;;;;5088230;28;20020;-86
2021/06/16 06:24:38;;;;;;;9.13;8.27;;;20.40;99.90;;;;;;5056731;28;20478;-87
2021/06/16 06:27:04;;;;;;;8.68;7.88;;;20.40;99.90;;;;;;5077864;28;20089;-88
2021/06/16 06:29:33;;;;;;;10.10;9.10;;;20.40;99.90;;;;;;5095095;28;20461;-88
2021/06/16 06:32:06;;;;;;;9.45;8.25;;;20.40;99.90;;;;;;5095105;28;20042;-89
2021/06/16 06:34:34;;;;;;;9.10;8.20;;;20.40;99.90;;;;;;5077159;28;20545;-92
2021/06/16 06:37:00;;;;;;;9.18;8.38;;;20.50;99.90;;;;;;5077183;28;20078;-91
2021/06/16 06:39:29;;;;;;;10.55;8.00;;;20.50;99.90;;;;;;5071752;28;20488;-91
2021/06/16 06:42:04;;;;;;;8.82;8.02;;;20.60;99.90;;;;;;5056678;28;20021;-90
2021/06/16 06:44:32;;;;;;;8.65;7.85;;;20.50;99.90;;;;;;5074561;28;20068;-92
2021/06/16 06:47:01;;;;;;;8.68;7.88;;;20.50;99.90;;;;;;5074508;28;20056;-95
2021/06/16 06:49:29;;;;;;;9.32;8.52;;;20.60;99.90;;;;;;5074592;28;20030;-90
2021/06/16 06:51:56;;;;;;;8.30;7.50;;;20.60;99.90;;;;;;5056352;28;20044;-93
2021/06/16 06:54:24;;;;;;;8.60;7.80;;;20.60;99.90;;;;;;5056631;28;20157;-93
2021/06/16 06:56:55;;;;;;;6.90;6.30;;;20.70;99.90;;;;;;5056863;28;20119;-91
2021/06/16 06:59:23;;;;;;;6.90;6.30;;;20.70;99.90;;;;;;5056746;28;20528;-92
2021/06/16 07:01:53;;;;;;;8.95;8.07;;;20.50;99.90;;;;;;5056753;28;20458;-91
2021/06/16 07:04:27;;;;;;;7.80;7.10;;;20.40;99.90;;;;;;5056695;28;20123;-91
2021/06/16 07:06:53;;;;;;;7.97;7.20;;;20.50;99.90;;;;;;5056504;28;20028;-85
2021/06/16 07:09:19;;;;;;;8.23;7.47;;;20.50;99.90;;;;;;5040080;28;20466;-90
2021/06/16 07:11:45;;;;;;;9.98;8.02;;;20.60;99.90;;;;;;5056407;28;20119;-89
2021/06/16 07:14:11;;;;;;;8.15;7.32;;;20.70;99.90;;;;;;5056614;28;20363;-91
2021/06/16 07:16:37;;;;;;;9.45;6.95;;;20.90;99.90;;;;;;5056574;28;20050;-91
2021/06/16 07:19:03;;;;;;;7.57;6.97;;;21.00;99.90;;;;;;5056591;28;20458;-92
2021/06/16 07:21:28;;;;;;;7.40;6.60;;;21.10;99.90;;;;;;5056557;28;20032;-92
2021/06/16 07:23:54;;;;;;;7.72;7.03;;;21.10;99.90;;;;;;5055747;28;20074;-92
2021/06/16 07:26:20;;;;;;;9.20;7.30;;;21.30;99.90;;;;;;5056190;28;20028;-92
2021/06/16 07:28:46;;;;;;;8.32;7.53;;;21.50;99.90;;;;;;5056478;28;20115;-92
2021/06/16 07:31:14;;;;;;;8.02;7.22;;;21.60;99.90;;;;;;5056652;28;20127;-93
2021/06/16 07:33:40;;;;;;;8.00;7.20;;;21.70;99.90;;;;;;5056545;28;20039;-92
2021/06/16 07:36:06;;;;;;;8.75;7.50;;;21.70;99.90;;;;;;5056370;28;20107;-91
2021/06/16 07:38:34;;;;;;;8.07;7.28;;;21.60;99.90;;;;;;5056024;28;20024;-92
2021/06/16 07:41:00;;;;;;;7.65;6.85;;;21.70;99.90;;;;;;5045139;28;20086;-92
2021/06/16 07:43:26;;;;;;;7.45;6.80;;;21.70;99.90;;;;;;5056144;28;20032;-92
2021/06/16 07:45:51;;;;;;;7.55;6.88;;;21.60;99.90;;;;;;5056121;28;20074;-92
2021/06/16 07:48:17;;;;;;;9.05;6.50;;;21.70;99.90;;;;;;5056196;28;20470;-91
2021/06/16 07:50:43;;;;;;;7.00;6.35;;;22.00;99.90;;;;;;5055892;28;20024;-92
2021/06/16 07:53:09;;;;;;;7.25;6.55;;;22.00;99.90;;;;;;5055788;28;20047;-93
2021/06/16 07:55:35;;;;;;;9.23;6.32;;;22.00;99.90;;;;;;5056072;28;20549;-91
2021/06/16 07:58:03;;;;;;;8.18;6.57;;;21.90;99.90;;;;;;5055825;28;20158;-88
2021/06/16 08:00:31;;;;;;;7.07;6.20;;;22.00;99.90;;;;;;5073545;28;20028;-87
2021/06/16 08:02:56;;;;;;;7.95;6.47;;;22.20;99.90;;;;;;5072515;28;20020;-88
2021/06/16 08:05:24;;;;;;;8.43;6.43;;;22.30;99.90;;;;;;5055778;28;20024;-88
2021/06/16 08:07:50;;;;;;;7.32;6.43;;;22.10;99.90;;;;;;5055592;28;20059;-88
2021/06/16 08:10:18;;;;;;;7.65;6.95;;;22.10;99.90;;;;;;5055690;28;20048;-88
2021/06/16 08:12:43;;;;;;;6.78;6.10;;;22.20;99.90;;;;;;5055641;28;20078;-88
2021/06/16 08:15:09;;;;;;;10.55;6.20;;;22.40;99.90;;;;;;5055519;28;20482;-89
2021/06/16 08:17:35;;;;;;;7.32;6.40;;;22.30;99.90;;;;;;5073271;28;20016;-89
2021/06/16 08:20:05;;;;;;;6.85;6.25;;;22.00;99.90;;;;;;5055521;28;20115;-88
2021/06/16 08:22:34;;;;;;;6.80;6.20;;;21.90;99.90;;;;;;5039334;28;20082;-89
2021/06/16 08:25:01;;;;;;;7.22;6.53;;;21.90;99.90;;;;;;5055296;28;20039;-88
2021/06/16 08:27:27;;;;;;;6.97;6.28;;;21.70;99.90;;;;;;5073055;28;20082;-88
2021/06/16 08:29:55;;;;;;;6.90;6.20;;;21.80;99.90;;;;;;5055182;28;20111;-87
2021/06/16 08:32:23;;;;;;;8.30;5.82;;;22.00;99.90;;;;;;5055703;28;20024;-90
2021/06/16 08:34:49;;;;;;;6.47;5.88;;;22.00;99.90;;;;;;5073217;28;20025;-88
2021/06/16 08:37:14;;;;;;;6.65;5.95;;;22.00;99.90;;;;;;5076096;28;20071;-87
2021/06/16 08:39:40;;;;;;;6.80;6.20;;;22.30;99.90;;;;;;5069975;28;20058;-87
2021/06/16 08:42:10;;;;;;;6.97;6.28;;;22.50;99.90;;;;;;5078481;28;20359;-86
2021/06/16 08:44:36;;;;;;;;;;;22.70;99.90;;;;;;5079278;28;20043;-87
2021/06/16 08:47:04;;;;;;;6.32;5.70;;;22.70;99.90;;;;;;5078924;28;19904;-87
2021/06/16 08:49:30;;;;;;;6.63;6.00;;;22.60;99.90;;;;;;5078468;28;20032;-87
2021/06/16 08:51:57;;;;;;;6.25;5.72;;;22.60;99.90;;;;;;5078511;28;20047;-88
2021/06/16 08:54:23;;;;;;;6.43;5.82;;;22.80;99.90;;;;;;5048873;28;20052;-89
2021/06/16 08:56:49;;;;;;;5.95;5.35;;;22.60;99.90;;;;;;5058348;28;20025;-87
2021/06/16 08:59:18;;;;;;;8.30;5.90;;;22.60;99.90;;;;;;5057893;28;20027;-87
2021/06/16 09:01:43;;;;;;;6.53;6.00;;;22.70;99.90;;;;;;5058229;28;20485;-86
2021/06/16 09:04:11;;;;;;;7.13;6.43;;;22.80;99.90;;;;;;5058130;28;20020;-88
2021/06/16 09:06:37;;;;;;;6.72;5.72;;;22.80;99.90;;;;;;5058090;28;20378;-87
2021/06/16 09:09:08;;;;;;;6.00;5.50;;;22.80;99.90;;;;;;5049366;28;20029;-86
2021/06/16 09:12:05;;;;;;;5.30;4.80;;;23.00;99.90;;;;;;5038069;28;20021;-88
2021/06/16 09:14:34;;;;;;;5.65;5.13;;;22.70;99.90;;;;;;5048523;28;20389;-85
2021/06/16 09:17:04;;;;;;;5.32;4.82;;;22.80;99.90;;;;;;5038048;28;20017;-86
2021/06/16 09:19:36;;;;;;;;;;;23.10;99.90;;;;;;5038260;28;20450;-86
2021/06/16 09:22:08;;;;;;;5.18;4.68;;;23.30;99.90;;;;;;5055736;28;20007;-87
2021/06/16 09:24:45;;;;;;;5.13;4.72;;;23.70;99.90;;;;;;5037688;28;20363;-87
2021/06/16 09:27:39;;;;;;;5.70;5.13;;;23.80;99.90;;;;;;5055445;28;20021;-86
2021/06/16 09:30:23;;;;;;;4.50;4.10;;;24.00;99.90;;;;;;5037619;28;20017;-86
2021/06/16 09:32:58;;;;;;;4.10;3.80;;;24.30;99.90;;;;;;5037558;28;20028;-86
2021/06/16 09:35:37;;;;;;;4.22;3.88;;;24.60;99.90;;;;;;5037594;28;20051;-87
2021/06/16 09:38:34;;;;;;;5.77;3.93;;;24.80;99.90;;;;;;5036662;28;20028;-86
2021/06/16 09:41:06;;;;;;;4.05;3.65;;;25.00;99.90;;;;;;5038069;28;20064;-87
2021/06/16 09:43:32;;;;;;;4.10;3.70;;;25.10;99.90;;;;;;5037498;28;20024;-87
2021/06/16 09:46:07;;;;;;;4.15;3.75;;;25.00;99.90;;;;;;5055097;28;20375;-87
2021/06/16 09:48:43;;;;;;;4.00;3.70;;;25.00;99.90;;;;;;5036515;28;20020;-88
2021/06/16 09:51:17;;;;;;;4.32;4.03;;;25.00;99.50;;;;;;5037236;28;20033;-88
2021/06/16 09:53:54;;;;;;;3.45;3.25;;;25.10;99.30;;;;;;5036940;28;20043;-88
2021/06/16 09:56:20;;;;;;;3.75;3.45;;;25.30;99.90;;;;;;5054972;28;20108;-87
2021/06/16 09:58:52;;;;;;;3.80;3.50;;;25.40;99.90;;;;;;5055170;28;20100;-89
2021/06/16 10:01:18;;;;;;;4.00;3.70;;;25.50;99.90;;;;;;5037975;28;20017;-87
2021/06/16 10:03:52;;;;;;;4.13;3.72;;;25.70;99.90;;;;;;5037607;28;20017;-90
2021/06/16 10:06:18;;;;;;;3.40;3.20;;;25.80;99.90;;;;;;5037368;28;20052;-90
2021/06/16 10:08:49;;;;;;;4.25;3.40;;;25.90;99.90;;;;;;5044902;28;20060;-89
2021/06/16 10:11:18;;;;;;;4.28;3.25;;;26.10;98.60;;;;;;5057429;28;20035;-91
2021/06/16 10:13:45;;;;;;;3.33;3.13;;;26.10;98.40;;;;;;5075194;28;20031;-90
2021/06/16 10:16:15;;;;;;;3.13;2.92;;;26.20;98.80;;;;;;5057390;28;20032;-90
2021/06/16 10:18:44;;;;;;;4.03;3.67;;;26.50;98.90;;;;;;5057544;28;20021;-92
2021/06/16 10:21:20;;;;;;;;;;;26.60;98.40;;;;;;5057804;28;20050;-91
2021/06/16 10:23:45;;;;;;;3.60;3.30;;;26.70;96.70;;;;;;5073885;28;19905;-91
2021/06/16 10:26:25;;;;;;;3.65;3.10;;;26.90;98.00;;;;;;5057287;28;20547;-90
2021/06/16 10:28:59;;;;;;;3.03;2.83;;;27.00;96.90;;;;;;5075156;28;20021;-91
2021/06/16 10:31:40;;;;;;;3.25;3.05;;;27.10;96.80;;;;;;5041327;28;20056;-91
2021/06/16 10:34:09;;;;;;;3.13;2.92;;;27.00;94.10;;;;;;5057120;28;20021;-92
2021/06/16 10:36:36;;;;;;;6.90;2.85;;;26.90;96.10;;;;;;5056999;28;20021;-91
2021/06/16 10:39:06;;;;;;;3.13;2.92;;;26.80;95.30;;;;;;5044742;28;20036;-90
2021/06/16 10:41:40;;;;;;;2.97;2.78;;;26.40;95.00;;;;;;5037808;28;20107;-90
2021/06/16 10:44:14;;;;;;;3.33;3.03;;;26.00;94.30;;;;;;5037150;28;20031;-90
2021/06/16 10:47:06;;;;;;;3.42;2.80;;;25.40;94.40;;;;;;5037089;28;20039;-91
2021/06/16 10:49:46;;;;;;;2.53;2.33;;;25.00;94.10;;;;;;5037060;28;20166;-93
2021/06/16 10:52:17;;;;;;;2.28;2.10;;;24.50;95.00;;;;;;5037396;28;20033;-95
2021/06/16 10:55:09;;;;;;;2.08;1.98;;;24.20;96.20;;;;;;5037148;28;20049;-94
2021/06/16 10:57:35;;;;;;;3.08;2.78;;;24.00;95.90;;;;;;5036892;28;20052;-93
2021/06/16 11:00:07;;;;;;;2.70;2.03;;;23.80;97.40;;;;;;5054339;28;20103;-94
2021/06/16 11:02:34;;;;;;;2.38;2.17;;;23.70;97.60;;;;;;5036759;28;20111;-92
2021/06/16 11:05:26;;;;;;;3.47;2.45;;;23.70;98.30;;;;;;5036708;28;20025;-94
2021/06/16 11:07:54;;;;;;;2.10;2.00;;;23.60;96.80;;;;;;5040164;28;20487;-96
2021/06/16 11:10:46;;;;;;;2.70;2.50;;;23.60;98.40;;;;;;5056667;28;20027;-96
2021/06/16 11:13:42;;;;;;;2.30;2.15;;;23.50;98.30;;;;;;5074489;28;20055;-96
2021/06/16 11:16:41;;;;;;;2.50;2.30;;;23.50;98.30;;;;;;5057374;28;20027;-96
2021/06/16 11:19:36;;;;;;;3.90;3.50;;;23.50;98.20;;;;;;5050021;28;20035;-96
2021/06/16 11:22:28;;;;;;;8.95;4.00;;;23.20;96.80;;;;;;5056957;28;20450;-90
2021/06/16 11:25:33;;;;;;;5.97;3.30;;;22.90;99.90;;;;;;5073161;28;20355;-87
2021/06/16 11:28:07;;;;;;;3.08;2.88;;;22.50;99.90;;;;;;5052096;28;20033;-89
2021/06/16 11:30:48;;;;;;;4.43;3.13;;;21.60;99.90;;;;;;5056033;28;20056;-90
2021/06/16 11:36:09;;;;;;;4.18;3.60;;;20.70;99.90;;;;;;5074243;28;20028;-91
2021/06/16 11:38:45;;;;;;;3.95;3.55;;;20.30;99.90;;;;;;5072987;28;20025;-90
2021/06/16 11:41:29;;;;;;;5.05;3.50;;;20.10;99.90;;;;;;5073642;28;20032;-90
2021/06/16 11:43:56;;;;;;;6.00;3.53;;;20.00;99.90;;;;;;5055923;28;20024;-89
2021/06/16 11:46:30;;;;;;;3.58;3.28;;;19.90;99.90;;;;;;5055654;28;20021;-90
2021/06/16 11:49:08;;;;;;;4.00;3.38;;;19.90;99.90;;;;;;5055566;28;20024;-87
2021/06/16 11:52:03;;;;;;;5.35;3.72;;;20.00;99.90;;;;;;5055396;28;20036;-87
2021/06/16 11:54:34;;;;;;;3.72;3.13;;;20.10;99.90;;;;;;5052875;28;20127;-87
2021/06/16 11:57:09;;;;;;;3.50;3.20;;;20.20;99.90;;;;;;5052677;28;20025;-86
2021/06/16 11:59:52;;;;;;;3.60;3.28;;;20.20;99.90;;;;;;5055396;28;20025;-88
2021/06/16 12:02:22;;;;;;;3.92;3.53;;;20.30;99.90;;;;;;5055983;28;20028;-87
2021/06/16 12:04:59;;;;;;;3.60;3.38;;;20.30;99.90;;;;;;5055467;28;20025;-87
2021/06/16 12:07:44;;;;;;;3.97;3.67;;;20.40;99.90;;;;;;5055469;28;20025;-86
2021/06/16 12:10:38;;;;;;;4.00;3.60;;;20.40;99.90;;;;;;5055310;28;20169;-87
2021/06/16 12:13:08;;;;;;;7.43;5.03;;;20.40;99.90;;;;;;5076018;28;20047;-88
2021/06/16 12:15:44;;;;;;;9.30;8.23;;;20.40;99.90;;;;;;5059236;28;20035;-88
2021/06/16 12:18:14;;;;;;;7.03;5.90;;;20.40;99.90;;;;;;5059017;28;20032;-87
2021/06/16 12:20:44;;;;;;;5.45;4.95;;;20.50;99.90;;;;;;5059654;28;20083;-87
2021/06/16 12:23:39;;;;;;;5.07;4.03;;;20.50;99.90;;;;;;5059022;28;20016;-88
2021/06/16 12:26:14;;;;;;;3.63;3.35;;;20.40;99.90;;;;;;5077014;28;20032;-87
2021/06/16 12:28:42;;;;;;;5.22;4.75;;;20.50;99.90;;;;;;5056692;28;20025;-88
2021/06/16 12:31:15;;;;;;;5.88;4.30;;;21.30;99.90;;;;;;5039268;28;20517;-88
2021/06/16 12:33:48;;;;;;;3.38;2.83;;;22.60;99.90;;;;;;5039400;28;20027;-89
2021/06/16 12:36:22;;;;;;;2.60;2.40;;;24.40;99.90;;;;;;5056981;28;20028;-89
2021/06/16 12:38:59;;;;;;;2.67;2.30;;;25.90;99.90;;;;;;5039353;28;20032;-89
2021/06/16 12:41:34;;;;;;;4.07;2.20;;;27.20;99.90;;;;;;5039387;28;20029;-89
2021/06/16 12:44:27;;;;;;;2.10;2.00;;;28.30;99.90;;;;;;5039122;28;20112;-89
2021/06/16 12:47:25;;;;;;;1.80;1.70;;;29.40;96.60;;;;;;5039035;28;20036;-89
2021/06/16 12:50:03;;;;;;;2.00;1.90;;;30.30;98.70;;;;;;5039494;28;20053;-91
2021/06/16 12:52:37;;;;;;;2.25;1.92;;;31.10;96.80;;;;;;5039508;28;20025;-90
2021/06/16 12:55:09;;;;;;;2.58;2.38;;;31.90;97.80;;;;;;5020764;28;20041;-90
2021/06/16 12:57:48;;;;;;;4.32;2.42;;;32.60;97.50;;;;;;5033121;28;20450;-92
2021/06/16 13:00:17;;;;;;;2.92;2.00;;;33.40;93.00;;;;;;5039160;28;20025;-91
2021/06/16 13:02:43;;;;;;;2.20;2.10;;;34.00;95.60;;;;;;5057303;28;20044;-89
2021/06/16 13:05:14;;;;;;;2.55;2.00;;;34.40;94.00;;;;;;5038877;28;20032;-89
2021/06/16 13:07:45;;;;;;;2.20;2.10;;;34.70;92.60;;;;;;5056636;28;20028;-88
2021/06/16 13:10:13;;;;;;;2.40;2.20;;;35.10;92.20;;;;;;5056574;28;20125;-90
2021/06/16 13:12:50;;;;;;;2.60;2.40;;;35.30;89.10;;;;;;5039190;28;20475;-90
2021/06/16 13:15:18;;;;;;;2.78;2.58;;;34.90;89.70;;;;;;5038410;28;20033;-88
2021/06/16 13:17:48;;;;;;;2.73;2.53;;;34.50;88.50;;;;;;5056539;28;20027;-89
2021/06/16 13:20:34;;;;;;;2.40;2.20;;;34.40;87.40;;;;;;5038119;28;20056;-87
2021/06/16 13:23:18;;;;;;;2.60;2.40;;;34.70;88.60;;;;;;5038024;28;20036;-89
2021/06/16 13:25:50;;;;;;;2.80;2.60;;;35.00;85.30;;;;;;5052212;28;20174;-88
2021/06/16 13:28:22;;;;;;;3.72;2.63;;;35.40;86.80;;;;;;5058362;28;20032;-91
2021/06/16 13:30:48;;;;;;;4.47;3.10;;;35.90;88.10;;;;;;5075750;28;20032;-90
2021/06/16 13:33:37;;;;;;;4.03;2.95;;;35.40;62.20;;;;;;5058209;28;20138;-88
2021/06/16 13:36:10;;;;;;;3.50;3.20;;;33.00;69.20;;;;;;5058279;28;20033;-88